RJSA METAR and TAF | Updated Today

RJSA METAR

Aomori Airport

Observation time: 23 min. ago

RJSA 291100Z 25011KT 9999 FEW010 BKN/// 12/10 Q1006

Need help? Read our tutorial on how to read METARs or read the parsed version below.

Aomori Airport (RJSA) METAR

  • Weather conditions on Sun, 29 May 2022 11:00:00 +0000 (23 min. ago):
  • Present conditions: Dry
  • Clouds: A few at 305 meters; broken sky
  • Visibility: Greater than 10 km
  • Wind: 250 degrees at 11 knots
  • Temperature: 12 celsius
  • Dew point: 10 celsius
  • Pressure: 1006 millibars
  • Remarks: None


Useful to know...

RJSA TAF

Aomori Airport

TAF RJSA 290505Z 2906/3012 27013KT 9999 FEW020 BECMG 2910/2912 20004KT BECMG 2916/2918 04008KT
Observation time: 6:18 hr. ago
Need help? Read our tutorial on how to read TAFs or read the parsed version below.

Parsed version of TAF for Aomori Airport (RJSA)

  • From 29 May at 06:00 UTC, to day 30 of the month at 12:00 UTC
  • Clouds: A few at 610 meters
  • Visibility: Greater than 10 km
  • Wind: 270 degrees at 13
  • Expected to arise soon, from 29 May at 10:00 UTC, to day 29 of the month at 12:00 UTC
  • Wind: 200 degrees at 4
  • Expected to arise soon, from 29 May at 16:00 UTC, to day 29 of the month at 18:00 UTC
  • Wind: 40 degrees at 8